createdAt,value
2022-11-20T00:01:30.757Z,39.63
2022-11-20T00:03:59.604Z,41.43
2022-11-20T00:06:29.011Z,39.87
2022-11-20T00:09:01.255Z,39.37
2022-11-20T00:11:31.150Z,38.73
2022-11-20T00:14:02.265Z,39.50
2022-11-20T00:16:32.692Z,39.40
2022-11-20T00:19:00.249Z,40.30
2022-11-20T00:21:28.932Z,40.27
2022-11-20T00:23:57.818Z,38.80
2022-11-20T00:26:27.124Z,39.90
2022-11-20T00:28:59.552Z,38.47
2022-11-20T00:31:27.640Z,39.47
2022-11-20T00:33:55.479Z,38.77
2022-11-20T00:36:26.397Z,37.77
2022-11-20T00:38:56.879Z,38.53
2022-11-20T00:41:26.383Z,37.67
2022-11-20T00:43:55.751Z,37.97
2022-11-20T00:46:25.611Z,37.37
2022-11-20T00:48:53.724Z,38.50
2022-11-20T00:51:24.216Z,39.40
2022-11-20T00:53:52.107Z,36.97
2022-11-20T00:56:20.596Z,38.40
2022-11-20T00:58:50.011Z,41.33
2022-11-20T01:01:25.847Z,38.83
2022-11-20T01:03:55.281Z,38.03
2022-11-20T01:06:26.753Z,39.97
2022-11-20T01:08:56.849Z,40.10
2022-11-20T01:11:27.103Z,40.53
2022-11-20T01:13:56.143Z,42.40
2022-11-20T01:16:28.106Z,40.90
2022-11-20T01:18:59.429Z,39.17
2022-11-20T01:21:32.345Z,40.07
2022-11-20T01:24:00.856Z,40.67
2022-11-20T01:26:30.763Z,41.50
2022-11-20T01:28:59.355Z,41.33
2022-11-20T01:31:35.330Z,39.90
2022-11-20T01:34:07.297Z,39.77
2022-11-20T01:36:37.706Z,41.23
2022-11-20T01:39:08.432Z,41.90
2022-11-20T01:41:54.591Z,42.33
2022-11-20T01:44:42.914Z,43.30
2022-11-20T01:47:15.466Z,42.53
2022-11-20T01:49:56.145Z,41.67
2022-11-20T01:52:28.978Z,43.10
2022-11-20T01:55:03.139Z,44.47
2022-11-20T01:57:32.945Z,43.53
2022-11-20T02:00:12.910Z,44.60
2022-11-20T02:02:44.277Z,44.57
2022-11-20T02:05:30.492Z,44.07
2022-11-20T02:07:59.133Z,43.80
2022-11-20T02:10:28.962Z,43.40
2022-11-20T02:13:15.591Z,43.77
2022-11-20T02:15:44.458Z,43.17
2022-11-20T02:18:14.794Z,44.13
2022-11-20T02:20:48.575Z,44.07
2022-11-20T02:23:30.957Z,44.90
2022-11-20T02:26:02.064Z,44.40
2022-11-20T02:28:29.541Z,46.40
2022-11-20T02:30:57.439Z,45.13
2022-11-20T02:33:24.907Z,46.10
2022-11-20T02:35:52.504Z,44.60
2022-11-20T02:38:20.585Z,46.90
2022-11-20T02:40:52.691Z,45.73
2022-11-20T02:43:23.077Z,45.57
2022-11-20T02:45:50.785Z,45.83
2022-11-20T02:48:18.309Z,45.37
2022-11-20T02:50:46.022Z,46.23
2022-11-20T02:53:13.336Z,44.87
2022-11-20T02:55:40.981Z,44.30
2022-11-20T02:58:08.317Z,44.37
2022-11-20T03:00:36.628Z,41.93
2022-11-20T03:03:03.973Z,42.27
2022-11-20T03:05:31.583Z,42.37
2022-11-20T03:07:58.989Z,42.47
2022-11-20T03:10:26.694Z,41.97
2022-11-20T03:12:57.089Z,41.23
2022-11-20T03:15:25.209Z,42.30
2022-11-20T03:17:57.273Z,40.07
2022-11-20T03:20:25.051Z,38.47
2022-11-20T03:22:54.684Z,38.53
2022-11-20T03:25:23.969Z,39.80
2022-11-20T03:27:51.528Z,37.13
2022-11-20T03:30:19.162Z,38.53
2022-11-20T03:32:46.879Z,41.00
2022-11-20T03:35:14.649Z,38.80
2022-11-20T03:37:42.133Z,36.47
2022-11-20T03:40:10.315Z,38.33
2022-11-20T03:42:46.761Z,38.90
2022-11-20T03:45:19.256Z,39.60
2022-11-20T03:47:47.081Z,39.03
2022-11-20T03:50:15.236Z,39.87
2022-11-20T03:52:43.235Z,37.07
2022-11-20T03:55:11.205Z,37.97
2022-11-20T03:57:38.863Z,39.23
2022-11-20T04:00:07.660Z,37.30
2022-11-20T04:02:35.004Z,38.67
2022-11-20T04:05:02.522Z,38.30
2022-11-20T04:07:29.944Z,40.13
2022-11-20T04:09:57.618Z,38.40
2022-11-20T04:12:24.884Z,40.10
2022-11-20T04:14:52.454Z,38.90
2022-11-20T04:17:19.733Z,40.80
2022-11-20T04:19:47.683Z,38.83
2022-11-20T04:22:15.769Z,39.20
2022-11-20T04:24:43.577Z,39.37
2022-11-20T04:27:10.914Z,39.87
2022-11-20T04:29:38.678Z,39.27
2022-11-20T04:32:06.178Z,39.43
2022-11-20T04:34:33.785Z,39.17
2022-11-20T04:37:02.191Z,38.47
2022-11-20T04:39:29.760Z,39.70
2022-11-20T04:42:15.698Z,39.50
2022-11-20T04:44:43.452Z,39.33
2022-11-20T04:47:10.762Z,41.23
2022-11-20T04:49:38.805Z,39.40
2022-11-20T04:52:06.243Z,44.03
2022-11-20T04:54:33.932Z,41.53
2022-11-20T04:57:01.226Z,42.67
2022-11-20T04:59:28.883Z,40.43
2022-11-20T05:01:56.510Z,38.90
2022-11-20T05:04:24.430Z,44.03
2022-11-20T05:06:52.033Z,40.33
2022-11-20T05:09:19.841Z,42.53
2022-11-20T05:11:51.301Z,41.40
2022-11-20T05:14:19.289Z,42.80
2022-11-20T05:16:46.672Z,41.40
2022-11-20T05:19:14.440Z,41.97
2022-11-20T05:21:41.859Z,43.03
2022-11-20T05:24:09.673Z,40.83
2022-11-20T05:26:37.068Z,39.17
2022-11-20T05:29:05.012Z,39.80
2022-11-20T05:31:32.436Z,39.57
2022-11-20T05:34:00.170Z,39.70
2022-11-20T05:36:27.748Z,38.63
2022-11-20T05:39:01.059Z,38.37
2022-11-20T05:41:29.351Z,38.90
2022-11-20T05:43:58.904Z,40.10
2022-11-20T05:46:29.129Z,38.43
2022-11-20T05:48:58.715Z,41.93
2022-11-20T05:51:29.037Z,40.10
2022-11-20T05:53:59.964Z,40.33
2022-11-20T05:56:27.531Z,41.50
2022-11-20T05:58:55.389Z,39.63
2022-11-20T06:01:27.261Z,40.97
2022-11-20T06:03:55.728Z,39.57
2022-11-20T06:06:24.327Z,42.27
2022-11-20T06:08:52.012Z,41.07
2022-11-20T06:11:19.584Z,40.63
2022-11-20T06:13:48.192Z,40.80
2022-11-20T06:16:19.094Z,41.80
2022-11-20T06:18:47.945Z,44.47
2022-11-20T06:21:22.663Z,42.50
2022-11-20T06:23:52.066Z,44.77
2022-11-20T06:26:24.825Z,42.97
2022-11-20T06:28:54.057Z,43.00
2022-11-20T06:31:24.260Z,42.40
2022-11-20T06:33:53.414Z,43.73
2022-11-20T06:36:23.173Z,45.60
2022-11-20T06:38:51.276Z,43.33
2022-11-20T06:41:21.245Z,46.43
2022-11-20T06:43:50.308Z,45.23
2022-11-20T06:46:19.672Z,42.33
2022-11-20T06:48:49.057Z,41.90
2022-11-20T06:51:17.174Z,44.37
2022-11-20T06:53:45.008Z,44.80
2022-11-20T06:56:12.506Z,46.10
2022-11-20T06:58:40.252Z,45.43
2022-11-20T07:01:12.266Z,44.40
2022-11-20T07:03:41.493Z,46.33
2022-11-20T07:06:09.595Z,45.03
2022-11-20T07:08:38.214Z,44.77
2022-11-20T07:11:07.838Z,44.57
2022-11-20T07:13:35.881Z,46.87
2022-11-20T07:16:06.644Z,45.17
2022-11-20T07:18:34.523Z,41.30
2022-11-20T07:21:09.205Z,42.67
2022-11-20T07:23:38.806Z,43.30
2022-11-20T07:26:08.669Z,43.67
2022-11-20T07:28:37.575Z,41.23
2022-11-20T07:31:07.853Z,44.90
2022-11-20T07:33:35.920Z,41.47
2022-11-20T07:36:04.040Z,44.73
2022-11-20T07:38:32.344Z,45.23
2022-11-20T07:41:02.677Z,43.77
2022-11-20T07:43:33.906Z,45.83
2022-11-20T07:46:05.977Z,43.57
2022-11-20T07:48:33.758Z,46.37
2022-11-20T07:51:01.118Z,42.90
2022-11-20T07:53:29.086Z,41.80
2022-11-20T07:56:00.125Z,44.70
2022-11-20T07:58:29.779Z,40.70
2022-11-20T08:00:58.216Z,40.17
2022-11-20T08:03:26.246Z,41.27
2022-11-20T08:05:53.738Z,40.97
2022-11-20T08:08:24.142Z,39.60
2022-11-20T08:10:51.558Z,38.40
2022-11-20T08:13:37.645Z,40.23
2022-11-20T08:16:07.041Z,40.43
2022-11-20T08:18:35.784Z,37.07
2022-11-20T08:21:06.563Z,39.20
2022-11-20T08:23:36.598Z,39.37
2022-11-20T08:26:04.766Z,40.13
2022-11-20T08:28:32.549Z,41.73
2022-11-20T08:31:03.484Z,37.87
2022-11-20T08:33:33.653Z,38.03
2022-11-20T08:36:05.138Z,37.60
2022-11-20T08:38:35.470Z,37.33
2022-11-20T08:41:24.674Z,38.97
2022-11-20T08:44:07.056Z,38.77
2022-11-20T08:46:42.649Z,37.23
2022-11-20T08:49:13.568Z,38.43
2022-11-20T08:51:41.916Z,38.57
2022-11-20T08:54:10.100Z,38.13
2022-11-20T08:56:38.205Z,39.60
2022-11-20T08:59:26.878Z,38.43
2022-11-20T09:01:55.132Z,42.03
2022-11-20T09:04:23.887Z,40.03
2022-11-20T09:06:53.840Z,42.40
2022-11-20T09:09:21.979Z,40.73
2022-11-20T09:11:52.871Z,45.73
2022-11-20T09:14:20.685Z,40.63
2022-11-20T09:16:48.432Z,43.53
2022-11-20T09:22:04.528Z,46.57
2022-11-20T09:24:32.309Z,45.80
2022-11-20T09:27:02.252Z,44.73
2022-11-20T09:29:30.194Z,41.80
2022-11-20T09:31:57.875Z,42.43
2022-11-20T09:34:25.928Z,41.27
2022-11-20T09:36:53.402Z,40.13
2022-11-20T09:39:21.369Z,41.13
2022-11-20T09:41:59.817Z,39.73
2022-11-20T09:44:49.295Z,40.27
2022-11-20T09:47:55.977Z,41.67
2022-11-20T09:51:11.107Z,40.17
2022-11-20T09:53:48.262Z,44.23
2022-11-20T09:56:19.761Z,38.90
2022-11-20T09:58:55.751Z,43.43
2022-11-20T10:01:32.947Z,40.37
2022-11-20T10:04:10.915Z,42.13
2022-11-20T10:07:04.126Z,44.07
2022-11-20T10:09:54.023Z,46.27
2022-11-20T10:12:57.115Z,44.37
2022-11-20T10:15:46.902Z,42.87
2022-11-20T10:18:58.964Z,43.87
2022-11-20T10:21:31.860Z,42.37
2022-11-20T10:24:12.134Z,45.63
2022-11-20T10:26:54.988Z,43.73
2022-11-20T10:29:54.892Z,41.97
2022-11-20T10:32:31.360Z,42.37
2022-11-20T10:35:05.937Z,38.60
2022-11-20T10:37:36.326Z,38.43
2022-11-20T10:40:43.995Z,39.27
2022-11-20T10:43:12.828Z,38.93
2022-11-20T10:46:18.989Z,39.53
2022-11-20T10:48:47.466Z,40.37
2022-11-20T10:51:52.797Z,41.00
2022-11-20T10:54:34.080Z,39.23
2022-11-20T10:57:27.648Z,39.73
2022-11-20T10:59:55.300Z,39.83
2022-11-20T11:02:26.423Z,40.83
2022-11-20T11:04:55.450Z,41.40
2022-11-20T11:07:37.535Z,42.17
2022-11-20T11:10:32.010Z,39.47
2022-11-20T11:12:59.998Z,39.83
2022-11-20T11:15:39.381Z,41.27
2022-11-20T11:18:11.151Z,41.13
2022-11-20T11:20:39.778Z,41.67
2022-11-20T11:23:40.724Z,41.43
2022-11-20T11:26:31.158Z,40.43
2022-11-20T11:29:04.461Z,42.27
2022-11-20T11:31:35.681Z,42.67
2022-11-20T11:34:06.986Z,42.37
2022-11-20T11:36:37.015Z,42.00
2022-11-20T11:39:07.791Z,42.30
2022-11-20T11:41:38.982Z,43.40
2022-11-20T11:44:41.774Z,41.10
2022-11-20T11:47:28.552Z,41.90
2022-11-20T11:50:24.899Z,41.20
2022-11-20T11:53:13.866Z,40.50
2022-11-20T11:56:08.844Z,42.23
2022-11-20T11:58:52.040Z,39.60
2022-11-20T12:01:45.741Z,41.70
2022-11-20T12:04:40.237Z,41.47
2022-11-20T12:10:24.096Z,38.97
2022-11-20T12:13:32.152Z,41.90
2022-11-20T12:16:00.278Z,42.90
2022-11-20T12:18:29.660Z,42.40
2022-11-20T12:21:22.051Z,42.17
2022-11-20T12:24:09.516Z,42.73
2022-11-20T12:26:50.200Z,38.77
2022-11-20T12:29:53.409Z,39.27
2022-11-20T12:32:23.918Z,41.07
2022-11-20T12:35:23.945Z,37.87
2022-11-20T12:38:29.223Z,38.37
2022-11-20T12:41:51.366Z,37.73
2022-11-20T12:45:11.861Z,40.13
2022-11-20T12:48:01.481Z,37.57
2022-11-20T12:51:13.966Z,38.00
2022-11-20T12:54:05.759Z,36.10
2022-11-20T12:56:51.150Z,36.97
2022-11-20T12:59:27.155Z,34.67
2022-11-20T13:23:40.283Z,38.47
2022-11-20T13:26:35.567Z,42.07
2022-11-20T13:29:22.219Z,57.73
2022-11-20T13:31:53.506Z,37.40
2022-11-20T13:34:27.622Z,36.23
2022-11-20T13:36:59.429Z,35.50
2022-11-20T13:39:37.143Z,35.10
2022-11-20T13:42:13.866Z,36.67
2022-11-20T13:44:50.008Z,35.83
2022-11-20T13:47:41.417Z,35.63
2022-11-20T13:50:11.751Z,34.67
2022-11-20T13:53:16.837Z,34.13
2022-11-20T13:55:55.477Z,37.60
2022-11-20T13:58:52.865Z,35.20
2022-11-20T14:01:32.885Z,39.87
2022-11-20T14:04:06.752Z,37.93
2022-11-20T14:06:47.711Z,34.77
2022-11-20T14:09:33.752Z,32.73
2022-11-20T14:12:02.311Z,32.70
2022-11-20T14:14:32.829Z,34.10
2022-11-20T14:17:23.966Z,32.67
2022-11-20T14:19:56.049Z,34.23
2022-11-20T14:22:30.423Z,32.70
2022-11-20T14:25:24.763Z,35.53
2022-11-20T14:28:02.089Z,33.50
2022-11-20T14:30:39.222Z,34.87
2022-11-20T14:33:08.865Z,34.63
2022-11-20T14:35:42.108Z,34.47
2022-11-20T14:38:16.014Z,34.20
2022-11-20T14:40:45.556Z,34.53
2022-11-20T14:43:34.170Z,33.23
2022-11-20T14:46:09.093Z,35.33
2022-11-20T14:48:47.326Z,33.13
2022-11-20T14:51:38.698Z,35.43
2022-11-20T14:54:15.762Z,39.43
2022-11-20T14:57:05.455Z,40.77
2022-11-20T14:59:35.846Z,41.97
2022-11-20T15:02:13.169Z,41.20
2022-11-20T15:04:52.485Z,39.97
2022-11-20T15:07:34.062Z,39.27
2022-11-20T15:10:09.950Z,43.17
2022-11-20T15:12:47.614Z,41.50
2022-11-20T15:15:19.526Z,44.03
2022-11-20T15:17:48.244Z,42.27
2022-11-20T15:20:18.175Z,39.27
2022-11-20T15:22:46.744Z,42.20
2022-11-20T15:25:17.132Z,41.70
2022-11-20T15:27:47.654Z,37.17
2022-11-20T15:30:21.394Z,39.13
2022-11-20T15:32:49.839Z,39.90
2022-11-20T15:35:17.651Z,40.20
2022-11-20T15:37:45.929Z,38.37
2022-11-20T15:40:14.078Z,37.90
2022-11-20T15:43:02.533Z,37.60
2022-11-20T15:45:35.956Z,38.33
2022-11-20T15:48:04.609Z,40.43
2022-11-20T15:50:39.116Z,38.07
2022-11-20T15:53:07.976Z,40.87
2022-11-20T15:55:36.414Z,42.50
2022-11-20T15:58:05.097Z,41.20
2022-11-20T16:00:33.905Z,39.57
2022-11-20T16:03:02.329Z,37.67
2022-11-20T16:05:31.021Z,38.47
2022-11-20T16:07:59.191Z,43.00
2022-11-20T16:10:27.082Z,40.43
2022-11-20T16:13:13.476Z,39.57
2022-11-20T16:15:47.511Z,39.27
2022-11-20T16:18:22.373Z,37.47
2022-11-20T16:20:56.085Z,40.73
2022-11-20T16:23:24.907Z,43.47
2022-11-20T16:25:53.227Z,42.70
2022-11-20T16:28:22.085Z,46.63
2022-11-20T16:30:50.020Z,42.53
2022-11-20T16:33:18.596Z,44.27
2022-11-20T16:35:46.706Z,42.47
2022-11-20T16:38:15.253Z,42.20
2022-11-20T16:40:44.517Z,41.87
2022-11-20T16:43:15.555Z,41.33
2022-11-20T16:45:45.130Z,42.27
2022-11-20T16:48:15.184Z,41.93
2022-11-20T16:50:53.869Z,40.17
2022-11-20T16:53:22.975Z,41.57
2022-11-20T16:55:50.720Z,41.23
2022-11-20T16:58:19.655Z,42.30
2022-11-20T17:00:51.650Z,41.90
2022-11-20T17:03:21.275Z,42.27
2022-11-20T17:05:49.757Z,41.10
2022-11-20T17:08:18.426Z,43.47
2022-11-20T17:10:46.464Z,42.53
2022-11-20T17:13:14.908Z,40.60
2022-11-20T17:15:43.118Z,40.53
2022-11-20T17:18:11.292Z,38.00
2022-11-20T17:20:39.272Z,40.63
2022-11-20T17:23:09.104Z,43.10
2022-11-20T17:25:37.213Z,38.50
2022-11-20T17:28:06.407Z,39.80
2022-11-20T17:30:34.785Z,41.33
2022-11-20T17:33:03.688Z,39.20
2022-11-20T17:35:31.995Z,38.93
2022-11-20T17:38:00.404Z,42.00
2022-11-20T17:40:28.272Z,44.77
2022-11-20T17:42:57.002Z,45.57
2022-11-20T17:45:25.772Z,41.33
2022-11-20T17:47:54.103Z,41.83
2022-11-20T17:50:22.571Z,40.37
2022-11-20T17:52:50.893Z,43.10
2022-11-20T17:55:19.152Z,38.83
2022-11-20T17:57:54.177Z,41.70
2022-11-20T18:00:22.653Z,38.40
2022-11-20T18:02:51.863Z,40.37
2022-11-20T18:05:20.740Z,37.90
2022-11-20T18:07:53.318Z,44.93
2022-11-20T18:10:21.878Z,50.77
2022-11-20T18:12:50.633Z,49.90
2022-11-20T18:15:18.744Z,45.67
2022-11-20T18:17:47.057Z,42.03
2022-11-20T18:20:29.531Z,40.67
2022-11-20T18:22:59.075Z,37.43
2022-11-20T18:25:27.217Z,38.97
2022-11-20T18:27:57.545Z,38.70
2022-11-20T18:30:25.475Z,38.40
2022-11-20T18:32:53.821Z,39.70
2022-11-20T18:35:22.951Z,44.80
2022-11-20T18:37:51.638Z,47.17
2022-11-20T18:40:20.018Z,63.23
2022-11-20T18:43:06.759Z,45.63
2022-11-20T18:45:34.650Z,42.33
2022-11-20T18:48:03.199Z,42.30
2022-11-20T18:50:32.890Z,39.80
2022-11-20T18:53:03.134Z,42.63
2022-11-20T18:55:31.327Z,41.90
2022-11-20T18:58:00.072Z,41.60
2022-11-20T19:00:28.782Z,42.17
2022-11-20T19:02:57.974Z,43.33
2022-11-20T19:05:26.503Z,37.83
2022-11-20T19:07:55.626Z,36.27
2022-11-20T19:10:28.209Z,37.27
2022-11-20T19:12:59.239Z,36.03
2022-11-20T19:15:28.989Z,38.80
2022-11-20T19:17:59.078Z,34.80
2022-11-20T19:20:28.806Z,39.00
2022-11-20T19:22:57.885Z,38.87
2022-11-20T19:25:25.379Z,36.13
2022-11-20T19:27:54.136Z,36.60
2022-11-20T19:30:21.580Z,34.70
2022-11-20T19:32:49.688Z,34.17
2022-11-20T19:35:17.298Z,34.50
2022-11-20T19:37:45.886Z,33.50
2022-11-20T19:40:13.916Z,33.73
2022-11-20T19:42:42.173Z,33.87
2022-11-20T19:45:10.294Z,36.03
2022-11-20T19:48:06.840Z,37.30
2022-11-20T19:50:27.124Z,35.93
2022-11-20T19:52:58.664Z,34.80
2022-11-20T19:55:27.311Z,35.27
2022-11-20T19:57:55.896Z,37.33
2022-11-20T20:00:29.672Z,36.63
2022-11-20T20:03:01.868Z,34.53
2022-11-20T20:05:31.543Z,35.40
2022-11-20T20:07:59.733Z,35.40
2022-11-20T20:10:28.137Z,36.20
2022-11-20T20:12:56.651Z,36.40
2022-11-20T20:15:24.929Z,37.83
2022-11-20T20:17:53.760Z,38.13
2022-11-20T20:20:22.126Z,35.67
2022-11-20T20:22:50.774Z,36.47
2022-11-20T20:25:18.780Z,38.07
2022-11-20T20:27:47.281Z,35.97
2022-11-20T20:30:15.675Z,36.17
2022-11-20T20:32:43.927Z,34.97
2022-11-20T20:35:11.876Z,36.80
2022-11-20T20:37:40.886Z,34.67
2022-11-20T20:40:14.867Z,37.00
2022-11-20T20:42:43.991Z,35.70
2022-11-20T20:45:12.426Z,36.30
2022-11-20T20:47:42.013Z,36.27
2022-11-20T20:50:12.356Z,35.47
2022-11-20T20:52:43.680Z,35.83
2022-11-20T20:55:12.459Z,38.80
2022-11-20T20:57:42.012Z,36.90
2022-11-20T21:00:11.044Z,36.30
2022-11-20T21:02:39.572Z,39.73
2022-11-20T21:05:08.038Z,37.07
2022-11-20T21:07:56.493Z,38.67
2022-11-20T21:10:24.508Z,39.07
2022-11-20T21:12:53.221Z,38.93
2022-11-20T21:15:21.058Z,37.57
2022-11-20T21:17:49.657Z,38.17
2022-11-20T21:20:37.930Z,38.40
2022-11-20T21:23:10.477Z,39.20
2022-11-20T21:25:39.637Z,38.23
2022-11-20T21:28:08.966Z,38.87
2022-11-20T21:30:37.017Z,38.03
2022-11-20T21:33:05.504Z,39.43
2022-11-20T21:35:38.266Z,40.40
2022-11-20T21:38:07.158Z,41.87
2022-11-20T21:40:36.067Z,39.17
2022-11-20T21:43:04.665Z,41.93
2022-11-20T21:45:32.505Z,40.23
2022-11-20T21:48:00.960Z,39.80
2022-11-20T21:50:28.808Z,38.53
2022-11-20T21:52:56.968Z,41.67
2022-11-20T21:55:24.788Z,44.53
2022-11-20T21:57:52.966Z,38.10
2022-11-20T22:00:21.070Z,39.43
2022-11-20T22:02:49.299Z,36.73
2022-11-20T22:05:17.635Z,40.83
2022-11-20T22:07:46.378Z,39.33
2022-11-20T22:10:18.256Z,39.93
2022-11-20T22:12:47.014Z,42.07
2022-11-20T22:15:27.964Z,45.20
2022-11-20T22:18:15.320Z,42.83
2022-11-20T22:20:43.194Z,43.00
2022-11-20T22:23:11.613Z,43.63
2022-11-20T22:25:41.273Z,47.43
2022-11-20T22:28:10.783Z,43.97
2022-11-20T22:30:39.488Z,45.23
2022-11-20T22:33:13.061Z,45.63
2022-11-20T22:35:41.479Z,44.50
2022-11-20T22:38:10.007Z,45.47
2022-11-20T22:40:37.923Z,44.50
2022-11-20T22:43:06.072Z,45.57
2022-11-20T22:45:33.929Z,46.30
2022-11-20T22:48:02.047Z,44.27
2022-11-20T22:50:30.091Z,44.17
2022-11-20T22:52:58.525Z,43.67
2022-11-20T22:55:26.361Z,47.70
2022-11-20T22:57:54.572Z,47.70
2022-11-20T23:00:22.532Z,45.60
2022-11-20T23:02:50.540Z,44.47
2022-11-20T23:05:18.379Z,44.90
2022-11-20T23:07:46.630Z,44.50
2022-11-20T23:10:14.687Z,43.70
2022-11-20T23:12:42.807Z,46.43
2022-11-20T23:15:10.845Z,47.27
2022-11-20T23:17:38.956Z,44.67
2022-11-20T23:20:07.145Z,45.47
2022-11-20T23:22:35.285Z,47.90
2022-11-20T23:25:03.005Z,44.83
2022-11-20T23:27:31.260Z,44.03
2022-11-20T23:29:59.291Z,44.87
2022-11-20T23:32:27.254Z,47.93
2022-11-20T23:34:55.038Z,49.70
2022-11-20T23:37:23.250Z,45.90
2022-11-20T23:39:51.041Z,45.77
2022-11-20T23:42:19.261Z,46.67
2022-11-20T23:44:46.939Z,47.03
2022-11-20T23:47:15.321Z,46.93
2022-11-20T23:49:43.206Z,48.80
2022-11-20T23:52:12.041Z,47.40
2022-11-20T23:54:39.890Z,48.53
2022-11-20T23:57:08.027Z,47.07
2022-11-20T23:59:35.759Z,46.13
